| time (UTC) | temp C | wind direction | speed KPH | gust KPH | rain 1hr cm | rain 24hr cm | rain mn cm | humidity % | barometer mb |
| 20260507085905 | 6 | 146 | 1.6 | 8.0 | 0.03 | 0.61 | 0.10 | 92 | 1017.3 |
| 20260507084400 | 6 | 124 | 3.2 | 12.9 | 0.03 | 0.61 | 0.10 | 91 | 1017.2 |
| 20260507082854 | 7 | 51 | 3.2 | 11.3 | 0.03 | 0.61 | 0.08 | 88 | 1017.1 |
| 20260507080226 | 6 | 109 | 1.6 | 8.0 | 0.03 | 0.61 | 0.08 | 91 | 1016.9 |
| 20260507073919 | 4 | 95 | 3.2 | 8.0 | 0.03 | 0.61 | 0.05 | 94 | 1016.9 |
| 20260507070056 | 2 | 152 | 0.0 | 0.0 | 0.03 | 0.61 | 0.05 | 94 | 1016.8 |
| 20260507064406 | 3 | 152 | 0.0 | 0.0 | 0.03 | 0.97 | 0.05 | 94 | 1016.4 |
| 20260507061400 | 3 | 288 | 0.0 | 8.0 | 0.03 | 0.97 | 0.05 | 93 | 1016.6 |
| 20260507054404 | 2 | 204 | 0.0 | 8.0 | 0.00 | 1.09 | 0.03 | 93 | 1016.4 |
| 20260507052900 | 2 | 70 | 0.0 | 6.4 | 0.00 | 1.09 | 0.03 | 93 | 1016.3 |
| 20260507045908 | 0 | 336 | 0.0 | 0.0 | 0.00 | 1.09 | 0.03 | 93 | 1016.2 |
| 20260507044405 | 0 | 314 | 0.0 | 1.6 | 0.00 | 1.09 | 0.03 | 93 | 1016.1 |
| 20260507042855 | 0 | 315 | 0.0 | 0.0 | 0.00 | 1.09 | 0.03 | 93 | 1015.9 |
| 20260507035905 | -1 | 315 | 0.0 | 0.0 | 0.00 | 1.09 | 0.03 | 94 | 1015.5 |
| 20260507034401 | 0 | 315 | 0.0 | 0.0 | 0.00 | 1.09 | 0.03 | 93 | 1015.5 |
| 20260507032859 | -1 | 315 | 0.0 | 0.0 | 0.00 | 1.09 | 0.03 | 93 | 1015.6 |
| 20260507025905 | 0 | 315 | 0.0 | 3.2 | 0.00 | 1.09 | 0.03 | 93 | 1015.7 |
| 20260507024401 | -3 | 315 | 0.0 | 3.2 | 0.00 | 1.09 | 0.03 | 94 | 1015.5 |
| 20260507022855 | -3 | 317 | 0.0 | 0.0 | 0.00 | 1.09 | 0.03 | 94 | 1015.6 |
| 20260507015908 | -2 | 317 | 0.0 | 0.0 | 0.00 | 1.09 | 0.03 | 94 | 1015.6 |
| 20260507014404 | -1 | 317 | 0.0 | 0.0 | 0.00 | 1.09 | 0.03 | 94 | 1015.6 |
| 20260507011351 | -1 | 317 | 0.0 | 1.6 | 0.00 | 1.09 | 0.03 | 94 | 1015.6 |
| 20260507004403 | 0 | 317 | 0.0 | 0.0 | 0.00 | 1.09 | 0.03 | 94 | 1015.5 |
| 20260507002900 | 0 | 317 | 0.0 | 0.0 | 0.00 | 1.09 | 0.03 | 94 | 1015.5 |
| 20260506235856 | 0 | 33 | 0.0 | 3.2 | 0.00 | 1.09 | 0.03 | 94 | 1015.5 |
| 20260506232905 | 1 | 33 | 0.0 | 0.0 | 0.00 | 1.09 | 0.03 | 94 | 1015.3 |
| 20260506231402 | 1 | 33 | 0.0 | 3.2 | 0.03 | 1.09 | 0.03 | 93 | 1015.5 |
| 20260506224407 | 2 | 51 | 3.2 | 4.8 | 0.03 | 1.09 | 0.03 | 93 | 1015.3 |
| 20260506222900 | 3 | 103 | 4.8 | 9.7 | 0.03 | 1.09 | 0.03 | 93 | 1015.3 |
| 20260506215917 | 3 | 88 | 3.2 | 9.7 | 0.05 | 1.09 | 0.00 | 93 | 1015.4 |
| 20260506212901 | 3 | 69 | 1.6 | 11.3 | 0.03 | 1.07 | 1.07 | 93 | 1015.5 |
| 20260506211352 | 3 | 63 | 4.8 | 9.7 | 0.05 | 1.07 | 1.07 | 93 | 1015.6 |
| 20260506204404 | 3 | 104 | 0.0 | 3.2 | 0.05 | 1.04 | 1.04 | 93 | 1015.4 |
| 20260506202859 | 3 | 97 | 3.2 | 11.3 | 0.05 | 1.04 | 1.04 | 93 | 1015.2 |
| 20260506195911 | 3 | 80 | 0.0 | 8.0 | 0.05 | 0.99 | 0.99 | 93 | 1015.3 |
| 20260506194407 | 3 | 78 | 4.8 | 9.7 | 0.05 | 1.02 | 0.99 | 93 | 1015.1 |
| 20260506192858 | 3 | 103 | 1.6 | 8.0 | 0.10 | 0.99 | 0.99 | 93 | 1014.8 |
| 20260506185907 | 3 | 50 | 6.4 | 11.3 | 0.10 | 0.99 | 0.97 | 94 | 1014.5 |
| 20260506184403 | 3 | 99 | 0.0 | 3.2 | 0.08 | 0.97 | 0.94 | 94 | 1014.7 |
| 20260506181408 | 4 | 85 | 0.0 | 3.2 | 0.00 | 0.89 | 0.86 | 93 | 1014.1 |
| 20260506175902 | 4 | 85 | 0.0 | 6.4 | 0.00 | 0.89 | 0.86 | 93 | 1013.8 |
| 20260506174359 | 5 | 83 | 3.2 | 9.7 | 0.00 | 0.89 | 0.86 | 93 | 1013.9 |
| 20260506171405 | 4 | 103 | 0.0 | 6.4 | 0.00 | 0.89 | 0.86 | 93 | 1013.6 |
| 20260506165901 | 4 | 62 | 0.0 | 1.6 | 0.00 | 0.89 | 0.86 | 93 | 1013.5 |
| 20260506162916 | 4 | 128 | 0.0 | 12.9 | 0.00 | 0.91 | 0.86 | 93 | 1013.5 |
| 20260506161402 | 5 | 213 | 4.8 | 16.1 | 0.00 | 0.91 | 0.86 | 93 | 1013.3 |
| 20260506155856 | 5 | 98 | 3.2 | 9.7 | 0.00 | 0.91 | 0.86 | 93 | 1013.4 |
| 20260506152906 | 5 | 60 | 0.0 | 8.0 | 0.00 | 0.94 | 0.86 | 93 | 1013.4 |
| 20260506151403 | 5 | 27 | 1.6 | 16.1 | 0.00 | 0.94 | 0.86 | 93 | 1013.3 |
| 20260506145859 | 5 | 112 | 4.8 | 11.3 | 0.00 | 0.94 | 0.86 | 93 | 1013.4 |
| 20260506144353 | 5 | 101 | 4.8 | 11.3 | 0.05 | 0.94 | 0.86 | 93 | 1013.5 |
| 20260506141405 | 5 | 90 | 6.4 | 19.3 | 0.10 | 0.94 | 0.86 | 93 | 1013.5 |
| 20260506135859 | 3 | 112 | 3.2 | 11.3 | 0.10 | 0.94 | 0.86 | 93 | 1013.7 |
| 20260506132905 | 5 | 70 | 3.2 | 9.7 | 0.05 | 0.91 | 0.79 | 93 | 1013.9 |
| 20260506131402 | 5 | 77 | 3.2 | 12.9 | 0.05 | 0.89 | 0.76 | 93 | 1014.0 |
| 20260506125857 | 5 | 311 | 0.0 | 9.7 | 0.05 | 0.89 | 0.76 | 93 | 1014.2 |
| 20260506122903 | 5 | 23 | 4.8 | 16.1 | 0.08 | 0.99 | 0.74 | 93 | 1014.0 |
| 20260506121359 | 5 | 105 | 3.2 | 17.7 | 0.05 | 0.97 | 0.71 | 93 | 1014.1 |
| 20260506114412 | 5 | 286 | 1.6 | 9.7 | 0.05 | 0.99 | 0.69 | 93 | 1014.0 |
| 20260506112900 | 5 | 11 | 3.2 | 12.9 | 0.05 | 0.99 | 0.66 | 93 | 1014.1 |
| 20260506111353 | 5 | 67 | 1.6 | 11.3 | 0.05 | 0.99 | 0.66 | 93 | 1014.3 |
| 20260506104403 | 5 | 67 | 3.2 | 9.7 | 0.03 | 1.55 | 0.64 | 93 | 1014.6 |
| 20260506102853 | 5 | 331 | 1.6 | 8.0 | 0.05 | 1.55 | 0.61 | 93 | 1014.7 |
| 20260506095907 | 4 | 30 | 3.2 | 9.7 | 0.05 | 1.55 | 0.61 | 93 | 1014.5 |
| 20260506094402 | 4 | 355 | 3.2 | 9.7 | 0.05 | 1.85 | 0.61 | 93 | 1014.7 |
| 20260506092854 | 3 | 228 | 3.2 | 12.9 | 0.00 | 1.83 | 0.58 | 93 | 1014.6 |